JST724 NZQN-YSSY
Flight info
| Callsign | JST724 |
|---|---|
| Flight time | 2h 39m |
| Altitude | 36000 |
| Route | ADKOS P766 TONIM DCT RIKNI N774 MARLN |
| Aircraft | A320/M-SDE3FGHIRWY/LB1 |
Departure
| Time | 2026-04-25 17:30 |
|---|---|
| Airport | Queenstown Airport (NZQN) |
Arrival
| Time | 2026-04-25 20:09 |
|---|---|
| Airport | Sydney Kingsford Smith International Airport (YSSY) |
| Time | Latitude | Longitude | Altitude | Speed | Heading |
|---|---|---|---|---|---|
| 2026-04-25 16:59 | -45.02198 | 168.74111 | 1171 ft | 0 kts | 252° |
| 2026-04-25 17:15 | -45.02196 | 168.74117 | 1170 ft | 3 kts | 252° |
| 2026-04-25 17:16 | -45.02191 | 168.74140 | 1171 ft | 2 kts | 257° |
| 2026-04-25 17:16 | -45.02192 | 168.74163 | 1171 ft | 3 kts | 329° |
| 2026-04-25 17:16 | -45.02208 | 168.74170 | 1169 ft | 3 kts | 350° |
| 2026-04-25 17:16 | -45.02215 | 168.74172 | 1171 ft | 0 kts | 350° |
| 2026-04-25 17:23 | -45.02203 | 168.74169 | 1169 ft | 3 kts | 350° |
| 2026-04-25 17:23 | -45.02173 | 168.74165 | 1171 ft | 5 kts | 357° |
| 2026-04-25 17:24 | -45.02132 | 168.74157 | 1170 ft | 7 kts | 337° |
| 2026-04-25 17:24 | -45.02102 | 168.74097 | 1170 ft | 8 kts | 296° |
| 2026-04-25 17:24 | -45.02051 | 168.74054 | 1170 ft | 9 kts | 356° |
| 2026-04-25 17:24 | -45.01988 | 168.74087 | 1174 ft | 8 kts | 25° |
| 2026-04-25 17:25 | -45.01978 | 168.74093 | 1174 ft | 0 kts | 25° |
| 2026-04-25 17:25 | -45.01971 | 168.74098 | 1177 ft | 3 kts | 26° |
| 2026-04-25 17:25 | -45.01928 | 168.74128 | 1177 ft | 10 kts | 29° |
| 2026-04-25 17:25 | -45.01893 | 168.74231 | 1179 ft | 15 kts | 79° |
| 2026-04-25 17:26 | -45.01871 | 168.74386 | 1177 ft | 18 kts | 78° |
| 2026-04-25 17:26 | -45.01843 | 168.74582 | 1173 ft | 22 kts | 79° |
| 2026-04-25 17:26 | -45.01811 | 168.74806 | 1168 ft | 24 kts | 78° |
| 2026-04-25 17:26 | -45.01772 | 168.75046 | 1173 ft | 25 kts | 77° |
| 2026-04-25 17:27 | -45.01732 | 168.75288 | 1175 ft | 26 kts | 77° |
| 2026-04-25 17:27 | -45.01693 | 168.75526 | 1178 ft | 21 kts | 77° |
| 2026-04-25 17:27 | -45.01657 | 168.75735 | 1181 ft | 23 kts | 76° |
| 2026-04-25 17:27 | -45.01644 | 168.75810 | 1181 ft | 23 kts | 76° |
| 2026-04-25 17:28 | -45.01611 | 168.75930 | 1176 ft | 1 kts | 329° |
| 2026-04-25 17:28 | -45.01608 | 168.75918 | 1175 ft | 2 kts | 284° |
| 2026-04-25 17:28 | -45.01619 | 168.75892 | 1175 ft | 4 kts | 231° |
| 2026-04-25 17:28 | -45.01638 | 168.75852 | 1177 ft | 8 kts | 244° |
| 2026-04-25 17:29 | -45.01644 | 168.75830 | 1181 ft | 0 kts | 257° |
| 2026-04-25 17:29 | -45.01675 | 168.75640 | 1181 ft | 58 kts | 257° |
| 2026-04-25 17:29 | -45.01820 | 168.74742 | 1171 ft | 128 kts | 257° |
| 2026-04-25 17:29 | -45.02052 | 168.73277 | 1328 ft | 167 kts | 257° |
| 2026-04-25 17:30 | -45.02218 | 168.72209 | 1802 ft | 163 kts | 257° |
| 2026-04-25 17:30 | -45.02708 | 168.70221 | 2642 ft | 162 kts | 239° |
| 2026-04-25 17:30 | -45.03431 | 168.68975 | 3178 ft | 167 kts | 221° |
| 2026-04-25 17:30 | -45.04405 | 168.68080 | 3602 ft | 169 kts | 203° |
| 2026-04-25 17:31 | -45.05545 | 168.67650 | 3994 ft | 172 kts | 185° |
| 2026-04-25 17:31 | -45.06738 | 168.67752 | 4493 ft | 173 kts | 167° |
| 2026-04-25 17:31 | -45.07843 | 168.68373 | 4981 ft | 175 kts | 148° |
| 2026-04-25 17:31 | -45.08774 | 168.69491 | 5437 ft | 179 kts | 129° |
| 2026-04-25 17:32 | -45.09490 | 168.71087 | 5764 ft | 210 kts | 116° |
| 2026-04-25 17:32 | -45.10010 | 168.73066 | 6604 ft | 208 kts | 103° |
| 2026-04-25 17:32 | -45.10254 | 168.74940 | 7922 ft | 192 kts | 101° |
| 2026-04-25 17:32 | -45.10734 | 168.77024 | 7086 ft | 261 kts | 124° |
| 2026-04-25 17:33 | -45.12223 | 168.78591 | 6498 ft | 270 kts | 166° |
| 2026-04-25 17:33 | -45.14106 | 168.78517 | 6635 ft | 292 kts | 200° |
| 2026-04-25 17:33 | -45.15943 | 168.76942 | 6775 ft | 328 kts | 218° |
| 2026-04-25 17:33 | -45.17904 | 168.75100 | 6932 ft | 358 kts | 206° |
| 2026-04-25 17:34 | -45.20323 | 168.74074 | 7375 ft | 359 kts | 188° |
| 2026-04-25 17:34 | -45.22732 | 168.73480 | 8516 ft | 343 kts | 198° |
| 2026-04-25 17:34 | -45.24777 | 168.71943 | 9836 ft | 325 kts | 219° |
| 2026-04-25 17:34 | -45.26297 | 168.69710 | 11141 ft | 307 kts | 234° |
| 2026-04-25 17:35 | -45.27384 | 168.67058 | 11645 ft | 321 kts | 248° |
| 2026-04-25 17:35 | -45.27931 | 168.63892 | 11882 ft | 339 kts | 266° |
| 2026-04-25 17:35 | -45.27792 | 168.60569 | 12419 ft | 346 kts | 282° |
| 2026-04-25 17:35 | -45.26970 | 168.57339 | 13015 ft | 352 kts | 299° |
| 2026-04-25 17:36 | -45.25491 | 168.54572 | 13678 ft | 355 kts | 316° |
| 2026-04-25 17:36 | -45.23498 | 168.52490 | 14324 ft | 358 kts | 328° |
| 2026-04-25 17:36 | -45.21391 | 168.50609 | 14966 ft | 360 kts | 327° |
| 2026-04-25 17:36 | -45.19261 | 168.48711 | 15544 ft | 363 kts | 327° |
| 2026-04-25 17:37 | -45.17112 | 168.46794 | 16114 ft | 367 kts | 327° |
| 2026-04-25 17:37 | -45.14939 | 168.44849 | 16702 ft | 370 kts | 327° |
| 2026-04-25 17:37 | -45.12761 | 168.42897 | 17282 ft | 372 kts | 327° |
| 2026-04-25 17:37 | -45.10574 | 168.40919 | 17879 ft | 374 kts | 327° |
| 2026-04-25 17:38 | -45.08409 | 168.38938 | 18436 ft | 377 kts | 327° |
| 2026-04-25 17:38 | -45.07667 | 168.38257 | 18623 ft | 378 kts | 327° |
| 2026-04-25 17:38 | -45.03963 | 168.34848 | 19441 ft | 387 kts | 327° |
| 2026-04-25 17:38 | -45.01693 | 168.32767 | 19968 ft | 391 kts | 327° |
| 2026-04-25 17:39 | -44.99401 | 168.30670 | 20490 ft | 395 kts | 327° |
| 2026-04-25 17:39 | -44.97087 | 168.28558 | 21024 ft | 397 kts | 327° |
| 2026-04-25 17:39 | -44.94792 | 168.26471 | 21619 ft | 398 kts | 327° |
| 2026-04-25 17:39 | -44.92430 | 168.24324 | 22109 ft | 401 kts | 327° |
| 2026-04-25 17:40 | -44.90228 | 168.21950 | 22536 ft | 405 kts | 316° |
| 2026-04-25 17:40 | -44.88362 | 168.18980 | 23009 ft | 408 kts | 306° |
| 2026-04-25 17:40 | -44.86913 | 168.15539 | 23229 ft | 409 kts | 294° |
| 2026-04-25 17:40 | -44.85975 | 168.11767 | 23464 ft | 408 kts | 284° |
| 2026-04-25 17:41 | -44.85257 | 168.07895 | 23680 ft | 409 kts | 284° |
| 2026-04-25 17:41 | -44.84523 | 168.04007 | 23907 ft | 412 kts | 285° |
| 2026-04-25 17:41 | -44.83777 | 168.00089 | 24131 ft | 416 kts | 285° |
| 2026-04-25 17:41 | -44.83033 | 167.96205 | 24356 ft | 415 kts | 285° |
| 2026-04-25 17:42 | -44.82276 | 167.92277 | 24574 ft | 417 kts | 285° |
| 2026-04-25 17:42 | -44.81513 | 167.88328 | 24806 ft | 418 kts | 285° |
| 2026-04-25 17:42 | -44.80747 | 167.84380 | 24996 ft | 420 kts | 285° |
| 2026-04-25 17:42 | -44.79979 | 167.80410 | 25009 ft | 419 kts | 285° |
| 2026-04-25 17:43 | -44.79212 | 167.76442 | 25219 ft | 421 kts | 285° |
| 2026-04-25 17:43 | -44.78443 | 167.72462 | 25701 ft | 422 kts | 285° |
| 2026-04-25 17:43 | -44.77667 | 167.68464 | 26074 ft | 425 kts | 285° |
| 2026-04-25 17:43 | -44.76886 | 167.64444 | 26468 ft | 427 kts | 285° |
| 2026-04-25 17:44 | -44.76112 | 167.60462 | 26862 ft | 428 kts | 285° |
| 2026-04-25 17:44 | -44.75322 | 167.56415 | 27192 ft | 431 kts | 285° |
| 2026-04-25 17:44 | -44.74523 | 167.52337 | 27519 ft | 433 kts | 285° |
| 2026-04-25 17:44 | -44.73720 | 167.48248 | 27925 ft | 434 kts | 285° |
| 2026-04-25 17:45 | -44.72912 | 167.44154 | 28289 ft | 435 kts | 285° |
| 2026-04-25 17:45 | -44.72639 | 167.42771 | 28397 ft | 436 kts | 285° |
| 2026-04-25 17:45 | -44.71285 | 167.35919 | 28938 ft | 439 kts | 285° |
| 2026-04-25 17:45 | -44.70467 | 167.31782 | 29249 ft | 441 kts | 285° |
| 2026-04-25 17:46 | -44.69644 | 167.27617 | 29549 ft | 443 kts | 285° |
| 2026-04-25 17:46 | -44.68827 | 167.23489 | 29852 ft | 445 kts | 285° |
| 2026-04-25 17:46 | -44.67991 | 167.19288 | 30147 ft | 447 kts | 285° |
| 2026-04-25 17:46 | -44.67153 | 167.15085 | 30553 ft | 446 kts | 285° |
| 2026-04-25 17:47 | -44.66315 | 167.10895 | 30965 ft | 445 kts | 285° |
| 2026-04-25 17:47 | -44.65476 | 167.06715 | 31365 ft | 444 kts | 285° |
| 2026-04-25 17:47 | -44.64637 | 167.02543 | 31758 ft | 443 kts | 285° |
| 2026-04-25 17:47 | -44.63795 | 166.98380 | 32151 ft | 443 kts | 285° |
| 2026-04-25 17:48 | -44.62051 | 166.90178 | 32912 ft | 441 kts | 292° |
| 2026-04-25 17:48 | -44.60695 | 166.86323 | 33275 ft | 441 kts | 301° |
| 2026-04-25 17:48 | -44.58937 | 166.82806 | 33637 ft | 440 kts | 307° |
| 2026-04-25 17:49 | -44.57099 | 166.79375 | 33999 ft | 439 kts | 307° |
| 2026-04-25 17:49 | -44.55266 | 166.75950 | 34353 ft | 439 kts | 307° |
| 2026-04-25 17:49 | -44.53435 | 166.72530 | 34693 ft | 438 kts | 307° |
| 2026-04-25 17:49 | -44.51608 | 166.69117 | 35018 ft | 437 kts | 307° |
| 2026-04-25 17:50 | -44.49807 | 166.65755 | 35324 ft | 437 kts | 307° |
| 2026-04-25 17:50 | -44.47984 | 166.62355 | 35640 ft | 436 kts | 307° |
| 2026-04-25 17:50 | -44.46159 | 166.58962 | 35907 ft | 436 kts | 307° |
| 2026-04-25 17:51 | -44.42489 | 166.52148 | 36011 ft | 441 kts | 307° |
| 2026-04-25 17:51 | -44.38792 | 166.45291 | 36012 ft | 442 kts | 307° |
| 2026-04-25 17:52 | -44.35089 | 166.38416 | 36008 ft | 443 kts | 307° |
| 2026-04-25 17:52 | -44.31400 | 166.31601 | 36008 ft | 443 kts | 307° |
| 2026-04-25 17:53 | -44.27676 | 166.24754 | 36014 ft | 443 kts | 307° |
| 2026-04-25 17:53 | -44.23945 | 166.17907 | 36017 ft | 443 kts | 307° |
| 2026-04-25 17:54 | -44.20233 | 166.11110 | 36021 ft | 443 kts | 307° |
| 2026-04-25 17:54 | -44.16494 | 166.04288 | 36022 ft | 443 kts | 307° |
| 2026-04-25 17:55 | -44.12749 | 165.97465 | 36023 ft | 443 kts | 307° |
| 2026-04-25 17:55 | -44.09011 | 165.90637 | 36024 ft | 443 kts | 307° |
| 2026-04-25 17:56 | -44.05271 | 165.83813 | 36025 ft | 443 kts | 307° |
| 2026-04-25 17:56 | -44.01554 | 165.77044 | 36024 ft | 443 kts | 307° |
| 2026-04-25 17:57 | -43.97808 | 165.70252 | 36024 ft | 443 kts | 307° |
| 2026-04-25 17:57 | -43.94048 | 165.63466 | 36024 ft | 443 kts | 307° |
| 2026-04-25 17:58 | -43.90291 | 165.56678 | 36026 ft | 443 kts | 307° |
| 2026-04-25 17:58 | -43.86555 | 165.49948 | 36024 ft | 443 kts | 307° |
| 2026-04-25 17:59 | -43.82789 | 165.43183 | 36024 ft | 443 kts | 307° |
| 2026-04-25 17:59 | -43.79019 | 165.36430 | 36023 ft | 443 kts | 307° |
| 2026-04-25 18:00 | -43.75889 | 165.30827 | 36023 ft | 443 kts | 307° |
| 2026-04-25 18:00 | -43.71538 | 165.23076 | 36009 ft | 442 kts | 308° |
| 2026-04-25 18:01 | -43.67768 | 165.16370 | 36012 ft | 442 kts | 307° |
| 2026-04-25 18:01 | -43.63999 | 165.09654 | 36010 ft | 442 kts | 308° |
| 2026-04-25 18:02 | -43.60215 | 165.02957 | 36008 ft | 442 kts | 308° |
| 2026-04-25 18:02 | -43.56451 | 164.96312 | 36011 ft | 442 kts | 308° |
| 2026-04-25 18:03 | -43.52654 | 164.89630 | 36014 ft | 443 kts | 308° |
| 2026-04-25 18:03 | -43.48859 | 164.82958 | 36017 ft | 443 kts | 308° |
| 2026-04-25 18:04 | -43.45061 | 164.76278 | 36018 ft | 443 kts | 308° |
| 2026-04-25 18:04 | -43.41281 | 164.69656 | 36020 ft | 443 kts | 308° |
| 2026-04-25 18:05 | -43.37472 | 164.62995 | 36021 ft | 443 kts | 308° |
| 2026-04-25 18:05 | -43.33660 | 164.56344 | 36021 ft | 443 kts | 308° |
| 2026-04-25 18:06 | -43.29866 | 164.49756 | 36019 ft | 443 kts | 308° |
| 2026-04-25 18:06 | -43.26048 | 164.43137 | 36019 ft | 443 kts | 308° |
| 2026-04-25 18:07 | -43.22225 | 164.36514 | 36020 ft | 443 kts | 308° |
| 2026-04-25 18:07 | -43.18399 | 164.29894 | 36021 ft | 443 kts | 308° |
| 2026-04-25 18:08 | -43.14592 | 164.23324 | 36023 ft | 443 kts | 308° |
| 2026-04-25 18:08 | -43.10751 | 164.16721 | 36024 ft | 443 kts | 308° |
| 2026-04-25 18:09 | -43.06911 | 164.10127 | 36025 ft | 444 kts | 308° |
| 2026-04-25 18:09 | -43.03058 | 164.03532 | 36028 ft | 444 kts | 308° |
| 2026-04-25 18:10 | -42.99226 | 163.96992 | 36028 ft | 444 kts | 308° |
| 2026-04-25 18:10 | -42.95363 | 163.90424 | 36027 ft | 443 kts | 308° |
| 2026-04-25 18:11 | -42.91502 | 163.83860 | 36026 ft | 443 kts | 308° |
| 2026-04-25 18:11 | -42.87644 | 163.77300 | 36026 ft | 443 kts | 308° |
| 2026-04-25 18:12 | -42.83814 | 163.70804 | 36025 ft | 443 kts | 308° |
| 2026-04-25 18:12 | -42.79949 | 163.64273 | 36023 ft | 443 kts | 309° |
| 2026-04-25 18:13 | -42.76080 | 163.57755 | 36021 ft | 442 kts | 309° |
| 2026-04-25 18:13 | -42.72203 | 163.51246 | 36020 ft | 443 kts | 309° |
| 2026-04-25 18:14 | -42.66418 | 163.41539 | 36021 ft | 443 kts | 309° |
| 2026-04-25 18:14 | -42.62536 | 163.35042 | 36022 ft | 443 kts | 309° |
| 2026-04-25 18:15 | -42.58650 | 163.28554 | 36022 ft | 443 kts | 309° |
| 2026-04-25 18:15 | -42.54760 | 163.22081 | 36021 ft | 443 kts | 309° |
| 2026-04-25 18:16 | -42.50892 | 163.15657 | 36021 ft | 443 kts | 309° |
| 2026-04-25 18:17 | -42.45054 | 163.05965 | 36020 ft | 442 kts | 309° |
| 2026-04-25 18:17 | -42.41153 | 162.99521 | 36018 ft | 442 kts | 309° |
| 2026-04-25 18:18 | -42.37196 | 162.93220 | 36017 ft | 442 kts | 311° |
| 2026-04-25 18:18 | -42.33149 | 162.86968 | 36016 ft | 442 kts | 311° |
| 2026-04-25 18:19 | -42.29109 | 162.80703 | 36014 ft | 442 kts | 310° |
| 2026-04-25 18:19 | -42.25084 | 162.74428 | 36014 ft | 442 kts | 310° |
| 2026-04-25 18:20 | -42.21086 | 162.68198 | 36012 ft | 442 kts | 310° |
| 2026-04-25 18:20 | -42.17059 | 162.61942 | 36013 ft | 442 kts | 311° |
| 2026-04-25 18:21 | -42.13018 | 162.55694 | 36012 ft | 442 kts | 311° |
| 2026-04-25 18:21 | -42.08976 | 162.49450 | 36014 ft | 442 kts | 311° |
| 2026-04-25 18:22 | -42.04960 | 162.43250 | 36015 ft | 442 kts | 311° |
| 2026-04-25 18:22 | -42.00912 | 162.37017 | 36015 ft | 442 kts | 311° |
| 2026-04-25 18:23 | -41.97544 | 162.31850 | 36017 ft | 442 kts | 311° |
| 2026-04-25 18:23 | -41.93483 | 162.25635 | 36018 ft | 443 kts | 311° |
| 2026-04-25 18:24 | -41.88769 | 162.18409 | 36020 ft | 443 kts | 311° |
| 2026-04-25 18:24 | -41.84702 | 162.12204 | 36021 ft | 443 kts | 311° |
| 2026-04-25 18:25 | -41.81311 | 162.07052 | 36023 ft | 443 kts | 311° |
| 2026-04-25 18:25 | -41.76580 | 161.99847 | 36025 ft | 443 kts | 311° |
| 2026-04-25 18:26 | -41.72502 | 161.93654 | 36026 ft | 443 kts | 311° |
| 2026-04-25 18:26 | -41.68421 | 161.87477 | 36026 ft | 443 kts | 311° |
| 2026-04-25 18:27 | -41.65017 | 161.82348 | 36028 ft | 443 kts | 311° |
| 2026-04-25 18:27 | -41.60259 | 161.75187 | 36028 ft | 443 kts | 311° |
| 2026-04-25 18:28 | -41.56836 | 161.70029 | 36027 ft | 443 kts | 311° |
| 2026-04-25 18:28 | -41.52772 | 161.63919 | 36026 ft | 443 kts | 311° |
| 2026-04-25 18:29 | -41.46625 | 161.54721 | 36023 ft | 443 kts | 311° |
| 2026-04-25 18:30 | -41.38457 | 161.42517 | 36022 ft | 443 kts | 311° |
| 2026-04-25 18:30 | -41.34351 | 161.36421 | 36022 ft | 443 kts | 311° |
| 2026-04-25 18:31 | -41.30241 | 161.30321 | 36022 ft | 443 kts | 311° |
| 2026-04-25 18:31 | -41.26129 | 161.24224 | 36023 ft | 443 kts | 311° |
| 2026-04-25 18:32 | -41.22035 | 161.18178 | 36024 ft | 443 kts | 312° |
| 2026-04-25 18:32 | -41.17910 | 161.12094 | 36025 ft | 443 kts | 311° |
| 2026-04-25 18:33 | -41.13784 | 161.06011 | 36028 ft | 443 kts | 312° |
| 2026-04-25 18:33 | -41.09650 | 160.99947 | 36028 ft | 444 kts | 312° |
| 2026-04-25 18:34 | -41.05517 | 160.93875 | 36030 ft | 443 kts | 312° |
| 2026-04-25 18:34 | -41.01407 | 160.87853 | 36030 ft | 443 kts | 312° |
| 2026-04-25 18:35 | -40.97265 | 160.81805 | 36027 ft | 443 kts | 312° |
| 2026-04-25 18:35 | -40.93118 | 160.75770 | 36028 ft | 443 kts | 312° |
| 2026-04-25 18:36 | -40.88976 | 160.69745 | 36027 ft | 443 kts | 312° |
| 2026-04-25 18:36 | -40.84857 | 160.63761 | 36027 ft | 443 kts | 312° |
| 2026-04-25 18:37 | -40.80704 | 160.57750 | 36025 ft | 443 kts | 312° |
| 2026-04-25 18:37 | -40.76551 | 160.51745 | 36025 ft | 443 kts | 312° |
| 2026-04-25 18:38 | -40.72427 | 160.45783 | 36025 ft | 443 kts | 312° |
| 2026-04-25 18:38 | -40.68274 | 160.39797 | 36026 ft | 443 kts | 312° |
| 2026-04-25 18:39 | -40.64114 | 160.33809 | 36026 ft | 443 kts | 312° |
| 2026-04-25 18:39 | -40.59948 | 160.27836 | 36024 ft | 443 kts | 312° |
| 2026-04-25 18:40 | -40.55803 | 160.21913 | 36026 ft | 443 kts | 312° |
| 2026-04-25 18:40 | -40.51633 | 160.15954 | 36025 ft | 443 kts | 312° |
| 2026-04-25 18:41 | -40.47471 | 160.10010 | 36022 ft | 442 kts | 312° |
| 2026-04-25 18:41 | -40.43297 | 160.04074 | 36021 ft | 442 kts | 313° |
| 2026-04-25 18:42 | -40.39825 | 159.99140 | 36022 ft | 443 kts | 312° |
| 2026-04-25 18:42 | -40.34969 | 159.92242 | 36025 ft | 443 kts | 313° |
| 2026-04-25 18:43 | -40.30778 | 159.86318 | 36025 ft | 443 kts | 313° |
| 2026-04-25 18:43 | -40.26589 | 159.80395 | 36027 ft | 443 kts | 313° |
| 2026-04-25 18:44 | -40.22427 | 159.74530 | 36027 ft | 443 kts | 313° |
| 2026-04-25 18:44 | -40.18230 | 159.68627 | 36026 ft | 443 kts | 313° |
| 2026-04-25 18:45 | -40.14028 | 159.62735 | 36027 ft | 443 kts | 313° |
| 2026-04-25 18:45 | -40.09825 | 159.56846 | 36028 ft | 443 kts | 313° |
| 2026-04-25 18:46 | -40.05650 | 159.51007 | 36029 ft | 443 kts | 313° |
| 2026-04-25 18:46 | -40.01440 | 159.45123 | 36030 ft | 443 kts | 313° |
| 2026-04-25 18:47 | -39.97225 | 159.39247 | 36030 ft | 443 kts | 313° |
| 2026-04-25 18:47 | -39.93002 | 159.33385 | 36031 ft | 443 kts | 313° |
| 2026-04-25 18:48 | -39.88805 | 159.27574 | 36029 ft | 443 kts | 313° |
| 2026-04-25 18:48 | -39.84586 | 159.21723 | 36029 ft | 443 kts | 313° |
| 2026-04-25 18:49 | -39.80364 | 159.15883 | 36028 ft | 443 kts | 313° |
| 2026-04-25 18:49 | -39.76143 | 159.10062 | 36027 ft | 443 kts | 313° |
| 2026-04-25 18:50 | -39.71950 | 159.04280 | 36025 ft | 442 kts | 313° |
| 2026-04-25 18:50 | -39.67726 | 158.98469 | 36024 ft | 442 kts | 313° |
| 2026-04-25 18:51 | -39.64209 | 158.93647 | 36023 ft | 442 kts | 313° |
| 2026-04-25 18:51 | -39.59261 | 158.86881 | 36022 ft | 442 kts | 313° |
| 2026-04-25 18:52 | -39.55056 | 158.81135 | 36021 ft | 442 kts | 313° |
| 2026-04-25 18:52 | -39.50825 | 158.75363 | 36021 ft | 442 kts | 313° |
| 2026-04-25 18:53 | -39.46588 | 158.69587 | 36022 ft | 442 kts | 313° |
| 2026-04-25 18:53 | -39.42344 | 158.63820 | 36023 ft | 443 kts | 313° |
| 2026-04-25 18:54 | -39.36000 | 158.55220 | 36023 ft | 442 kts | 313° |
| 2026-04-25 18:55 | -39.31758 | 158.49472 | 36023 ft | 442 kts | 313° |
| 2026-04-25 18:55 | -39.27504 | 158.43727 | 36025 ft | 443 kts | 313° |
| 2026-04-25 18:56 | -39.23242 | 158.37993 | 36025 ft | 443 kts | 314° |
| 2026-04-25 18:56 | -39.19015 | 158.32295 | 36024 ft | 442 kts | 313° |
| 2026-04-25 18:57 | -39.14760 | 158.26568 | 36024 ft | 442 kts | 314° |
| 2026-04-25 18:57 | -39.10497 | 158.20865 | 36024 ft | 442 kts | 314° |
| 2026-04-25 18:58 | -39.06255 | 158.15196 | 36025 ft | 443 kts | 314° |
| 2026-04-25 18:58 | -38.99842 | 158.06647 | 36027 ft | 443 kts | 314° |
| 2026-04-25 18:59 | -38.91293 | 157.95274 | 36025 ft | 442 kts | 314° |
| 2026-04-25 19:00 | -38.84905 | 157.86814 | 36024 ft | 442 kts | 314° |
| 2026-04-25 19:01 | -38.78481 | 157.78325 | 36022 ft | 442 kts | 314° |
| 2026-04-25 19:01 | -38.74226 | 157.72710 | 36023 ft | 442 kts | 314° |
| 2026-04-25 19:02 | -38.67797 | 157.64240 | 36022 ft | 442 kts | 314° |
| 2026-04-25 19:03 | -38.62085 | 157.56746 | 36023 ft | 442 kts | 314° |
| 2026-04-25 19:03 | -38.57099 | 157.50204 | 36023 ft | 442 kts | 314° |
| 2026-04-25 19:04 | -38.50654 | 157.41789 | 36022 ft | 442 kts | 314° |
| 2026-04-25 19:05 | -38.42045 | 157.30601 | 36020 ft | 442 kts | 314° |
| 2026-04-25 19:06 | -38.37772 | 157.25047 | 36020 ft | 442 kts | 314° |
| 2026-04-25 19:06 | -38.31312 | 157.16668 | 36011 ft | 442 kts | 314° |
| 2026-04-25 19:07 | -38.24818 | 157.08269 | 36001 ft | 445 kts | 314° |
| 2026-04-25 19:08 | -38.18320 | 156.99909 | 36009 ft | 446 kts | 314° |
| 2026-04-25 19:09 | -38.10332 | 156.89655 | 36012 ft | 446 kts | 314° |
| 2026-04-25 19:10 | -38.03082 | 156.80366 | 36015 ft | 446 kts | 314° |
| 2026-04-25 19:10 | -37.98716 | 156.74778 | 36017 ft | 446 kts | 314° |
| 2026-04-25 19:11 | -37.94347 | 156.69208 | 36019 ft | 446 kts | 315° |
| 2026-04-25 19:11 | -37.89964 | 156.63641 | 36022 ft | 446 kts | 315° |
| 2026-04-25 19:12 | -37.85613 | 156.58106 | 36023 ft | 446 kts | 315° |
| 2026-04-25 19:12 | -37.81229 | 156.52544 | 36023 ft | 446 kts | 315° |
| 2026-04-25 19:13 | -37.76838 | 156.46992 | 36024 ft | 446 kts | 315° |
| 2026-04-25 19:13 | -37.72480 | 156.41478 | 36025 ft | 446 kts | 315° |
| 2026-04-25 19:14 | -37.68096 | 156.35938 | 36024 ft | 446 kts | 315° |
| 2026-04-25 19:14 | -37.63701 | 156.30405 | 36024 ft | 446 kts | 315° |
| 2026-04-25 19:15 | -37.59304 | 156.24878 | 36024 ft | 446 kts | 315° |
| 2026-04-25 19:15 | -37.54933 | 156.19391 | 36025 ft | 446 kts | 315° |
| 2026-04-25 19:16 | -37.50527 | 156.13875 | 36026 ft | 446 kts | 315° |
| 2026-04-25 19:16 | -37.46125 | 156.08370 | 36025 ft | 446 kts | 315° |
| 2026-04-25 19:17 | -37.41714 | 156.02869 | 36025 ft | 446 kts | 315° |
| 2026-04-25 19:17 | -37.37304 | 155.97372 | 36026 ft | 446 kts | 315° |
| 2026-04-25 19:18 | -37.32920 | 155.91918 | 36025 ft | 446 kts | 315° |
| 2026-04-25 19:18 | -37.28507 | 155.86431 | 36025 ft | 446 kts | 315° |
| 2026-04-25 19:19 | -37.24093 | 155.80949 | 36026 ft | 446 kts | 315° |
| 2026-04-25 19:19 | -37.19701 | 155.75515 | 36026 ft | 446 kts | 315° |
| 2026-04-25 19:20 | -37.15280 | 155.70061 | 36026 ft | 446 kts | 315° |
| 2026-04-25 19:20 | -37.10856 | 155.64602 | 36026 ft | 446 kts | 315° |
| 2026-04-25 19:21 | -37.06432 | 155.59144 | 36025 ft | 446 kts | 315° |
| 2026-04-25 19:21 | -36.99815 | 155.51021 | 36025 ft | 446 kts | 315° |
| 2026-04-25 19:22 | -36.95391 | 155.45599 | 36023 ft | 446 kts | 315° |
| 2026-04-25 19:23 | -36.88742 | 155.37472 | 36022 ft | 446 kts | 315° |
| 2026-04-25 19:23 | -36.82114 | 155.29392 | 36023 ft | 446 kts | 315° |
| 2026-04-25 19:24 | -36.77669 | 155.23983 | 36025 ft | 446 kts | 315° |
| 2026-04-25 19:25 | -36.68777 | 155.13173 | 36028 ft | 446 kts | 315° |
| 2026-04-25 19:25 | -36.64333 | 155.07784 | 36027 ft | 446 kts | 315° |
| 2026-04-25 19:26 | -36.59911 | 155.02436 | 36027 ft | 446 kts | 315° |
| 2026-04-25 19:26 | -36.55455 | 154.97067 | 36025 ft | 446 kts | 316° |
| 2026-04-25 19:27 | -36.51757 | 154.92611 | 36024 ft | 446 kts | 315° |
| 2026-04-25 19:27 | -36.46576 | 154.86371 | 36024 ft | 446 kts | 316° |
| 2026-04-25 19:28 | -36.42124 | 154.81020 | 36025 ft | 446 kts | 316° |
| 2026-04-25 19:28 | -36.37666 | 154.75674 | 36023 ft | 446 kts | 316° |
| 2026-04-25 19:29 | -36.33203 | 154.70334 | 36024 ft | 446 kts | 316° |
| 2026-04-25 19:29 | -36.28765 | 154.65038 | 36023 ft | 446 kts | 316° |
| 2026-04-25 19:30 | -36.24297 | 154.59706 | 36025 ft | 446 kts | 316° |
| 2026-04-25 19:30 | -36.19819 | 154.54387 | 36025 ft | 446 kts | 316° |
| 2026-04-25 19:31 | -36.15348 | 154.49072 | 36027 ft | 446 kts | 316° |
| 2026-04-25 19:31 | -36.10908 | 154.43784 | 36027 ft | 446 kts | 316° |
| 2026-04-25 19:32 | -36.06429 | 154.38471 | 36027 ft | 446 kts | 316° |
| 2026-04-25 19:32 | -36.02709 | 154.34072 | 36025 ft | 446 kts | 316° |
| 2026-04-25 19:33 | -35.97475 | 154.27885 | 36025 ft | 445 kts | 316° |
| 2026-04-25 19:33 | -35.93023 | 154.22640 | 36024 ft | 445 kts | 316° |
| 2026-04-25 19:34 | -35.88542 | 154.17365 | 36021 ft | 445 kts | 316° |
| 2026-04-25 19:34 | -35.84059 | 154.12100 | 36020 ft | 445 kts | 316° |
| 2026-04-25 19:35 | -35.79580 | 154.06850 | 36018 ft | 445 kts | 316° |
| 2026-04-25 19:35 | -35.75126 | 154.01632 | 36017 ft | 445 kts | 316° |
| 2026-04-25 19:36 | -35.70640 | 153.96386 | 36017 ft | 445 kts | 316° |
| 2026-04-25 19:36 | -35.66151 | 153.91146 | 36017 ft | 445 kts | 316° |
| 2026-04-25 19:37 | -35.61688 | 153.85947 | 36018 ft | 445 kts | 316° |
| 2026-04-25 19:37 | -35.57204 | 153.80715 | 36019 ft | 445 kts | 316° |
| 2026-04-25 19:38 | -35.52707 | 153.75485 | 36021 ft | 445 kts | 316° |
| 2026-04-25 19:38 | -35.48203 | 153.70266 | 36021 ft | 445 kts | 316° |
| 2026-04-25 19:39 | -35.43699 | 153.65052 | 36022 ft | 445 kts | 316° |
| 2026-04-25 19:39 | -35.39227 | 153.59884 | 36023 ft | 445 kts | 316° |
| 2026-04-25 19:40 | -35.34717 | 153.54674 | 36024 ft | 445 kts | 316° |
| 2026-04-25 19:40 | -35.30201 | 153.49475 | 36025 ft | 446 kts | 316° |
| 2026-04-25 19:41 | -35.25709 | 153.44315 | 36034 ft | 445 kts | 316° |
| 2026-04-25 19:41 | -35.21929 | 153.39983 | 36008 ft | 443 kts | 316° |
| 2026-04-25 19:42 | -35.16710 | 153.33984 | 36001 ft | 443 kts | 316° |
| 2026-04-25 19:42 | -35.12206 | 153.28818 | 36006 ft | 444 kts | 316° |
| 2026-04-25 19:43 | -35.07725 | 153.23686 | 35726 ft | 444 kts | 316° |
| 2026-04-25 19:43 | -35.05470 | 153.21108 | 35450 ft | 444 kts | 316° |
| 2026-04-25 19:43 | -35.03214 | 153.18536 | 35200 ft | 445 kts | 317° |
| 2026-04-25 19:44 | -35.00947 | 153.15958 | 34952 ft | 446 kts | 316° |
| 2026-04-25 19:44 | -34.98681 | 153.13373 | 34700 ft | 446 kts | 316° |
| 2026-04-25 19:44 | -34.96412 | 153.10787 | 34449 ft | 447 kts | 316° |
| 2026-04-25 19:44 | -34.94138 | 153.08202 | 34207 ft | 447 kts | 317° |
| 2026-04-25 19:45 | -34.91859 | 153.05620 | 33956 ft | 448 kts | 317° |
| 2026-04-25 19:45 | -34.89607 | 153.03071 | 33706 ft | 448 kts | 317° |
| 2026-04-25 19:45 | -34.87331 | 153.00487 | 33457 ft | 446 kts | 317° |
| 2026-04-25 19:45 | -34.85064 | 152.97912 | 33206 ft | 445 kts | 317° |
| 2026-04-25 19:46 | -34.82805 | 152.95348 | 32956 ft | 443 kts | 317° |
| 2026-04-25 19:46 | -34.80553 | 152.92797 | 32696 ft | 441 kts | 317° |
| 2026-04-25 19:46 | -34.78308 | 152.90259 | 32455 ft | 440 kts | 317° |
| 2026-04-25 19:46 | -34.76077 | 152.87736 | 32200 ft | 438 kts | 317° |
| 2026-04-25 19:47 | -34.73880 | 152.85252 | 31965 ft | 436 kts | 317° |
| 2026-04-25 19:47 | -34.71660 | 152.82745 | 31740 ft | 435 kts | 317° |
| 2026-04-25 19:47 | -34.69447 | 152.80251 | 31490 ft | 433 kts | 317° |
| 2026-04-25 19:47 | -34.67239 | 152.77771 | 31240 ft | 431 kts | 317° |
| 2026-04-25 19:48 | -34.65044 | 152.75304 | 30941 ft | 428 kts | 317° |
| 2026-04-25 19:48 | -34.62870 | 152.72860 | 30421 ft | 424 kts | 317° |
| 2026-04-25 19:48 | -34.60710 | 152.70433 | 29887 ft | 422 kts | 317° |
| 2026-04-25 19:48 | -34.58594 | 152.68056 | 29380 ft | 419 kts | 317° |
| 2026-04-25 19:49 | -34.56461 | 152.65664 | 28860 ft | 416 kts | 317° |
| 2026-04-25 19:49 | -34.55032 | 152.64061 | 28506 ft | 414 kts | 317° |
| 2026-04-25 19:49 | -34.52242 | 152.60929 | 27848 ft | 410 kts | 317° |
| 2026-04-25 19:49 | -34.50158 | 152.58593 | 27350 ft | 407 kts | 317° |
| 2026-04-25 19:50 | -34.46023 | 152.53963 | 26387 ft | 402 kts | 317° |
| 2026-04-25 19:50 | -34.43975 | 152.51672 | 25940 ft | 399 kts | 317° |
| 2026-04-25 19:50 | -34.41967 | 152.49430 | 25501 ft | 397 kts | 317° |
| 2026-04-25 19:51 | -34.39942 | 152.47173 | 25054 ft | 394 kts | 317° |
| 2026-04-25 19:51 | -34.37930 | 152.44931 | 24616 ft | 392 kts | 317° |
| 2026-04-25 19:51 | -34.35929 | 152.42699 | 24182 ft | 390 kts | 317° |
| 2026-04-25 19:51 | -34.33939 | 152.40475 | 23738 ft | 389 kts | 317° |
| 2026-04-25 19:52 | -34.31957 | 152.38264 | 23298 ft | 386 kts | 317° |
| 2026-04-25 19:52 | -34.29983 | 152.36067 | 22839 ft | 385 kts | 317° |
| 2026-04-25 19:52 | -34.28019 | 152.33880 | 22382 ft | 383 kts | 317° |
| 2026-04-25 19:52 | -34.26070 | 152.31710 | 21917 ft | 381 kts | 317° |
| 2026-04-25 19:53 | -34.24150 | 152.29577 | 21453 ft | 379 kts | 317° |
| 2026-04-25 19:53 | -34.22214 | 152.27428 | 20973 ft | 377 kts | 317° |
| 2026-04-25 19:53 | -34.20287 | 152.25293 | 20494 ft | 375 kts | 317° |
| 2026-04-25 19:53 | -34.18370 | 152.23173 | 19999 ft | 372 kts | 317° |
| 2026-04-25 19:54 | -34.16466 | 152.21068 | 19523 ft | 370 kts | 317° |
| 2026-04-25 19:54 | -34.14576 | 152.18977 | 19030 ft | 367 kts | 317° |
| 2026-04-25 19:54 | -34.12700 | 152.16903 | 18544 ft | 363 kts | 317° |
| 2026-04-25 19:54 | -34.11478 | 152.15552 | 18232 ft | 358 kts | 317° |
| 2026-04-25 19:55 | -34.09062 | 152.12882 | 17609 ft | 353 kts | 317° |
| 2026-04-25 19:55 | -34.07257 | 152.10891 | 17145 ft | 351 kts | 317° |
| 2026-04-25 19:55 | -34.05516 | 152.08842 | 16674 ft | 349 kts | 310° |
| 2026-04-25 19:55 | -34.04162 | 152.06439 | 16204 ft | 346 kts | 297° |
| 2026-04-25 19:56 | -34.03295 | 152.03754 | 15743 ft | 343 kts | 284° |
| 2026-04-25 19:56 | -34.02896 | 152.00933 | 15287 ft | 340 kts | 277° |
| 2026-04-25 19:56 | -34.02613 | 151.98108 | 14823 ft | 338 kts | 277° |
| 2026-04-25 19:56 | -34.02336 | 151.95341 | 14373 ft | 336 kts | 277° |
| 2026-04-25 19:57 | -34.02054 | 151.92552 | 13920 ft | 334 kts | 277° |
| 2026-04-25 19:57 | -34.01774 | 151.89781 | 13468 ft | 332 kts | 277° |
| 2026-04-25 19:57 | -34.01498 | 151.87028 | 13016 ft | 330 kts | 277° |
| 2026-04-25 19:57 | -34.01223 | 151.84293 | 12615 ft | 326 kts | 277° |
| 2026-04-25 19:58 | -34.00954 | 151.81636 | 12536 ft | 313 kts | 277° |
| 2026-04-25 19:58 | -34.00803 | 151.79079 | 12463 ft | 300 kts | 268° |
| 2026-04-25 19:58 | -34.01058 | 151.76629 | 12394 ft | 294 kts | 256° |
| 2026-04-25 19:58 | -34.01682 | 151.74301 | 12218 ft | 297 kts | 249° |
| 2026-04-25 19:59 | -34.02404 | 151.71973 | 11848 ft | 297 kts | 249° |
| 2026-04-25 19:59 | -34.03127 | 151.69640 | 11439 ft | 297 kts | 250° |
| 2026-04-25 19:59 | -34.03850 | 151.67304 | 11031 ft | 298 kts | 250° |
| 2026-04-25 19:59 | -34.04570 | 151.64964 | 10617 ft | 298 kts | 250° |
| 2026-04-25 20:00 | -34.05289 | 151.62622 | 10242 ft | 297 kts | 250° |
| 2026-04-25 20:00 | -34.05760 | 151.61086 | 10084 ft | 293 kts | 250° |
| 2026-04-25 20:00 | -34.06698 | 151.58026 | 9708 ft | 287 kts | 250° |
| 2026-04-25 20:00 | -34.07389 | 151.55770 | 9385 ft | 290 kts | 250° |
| 2026-04-25 20:01 | -34.08776 | 151.51238 | 8690 ft | 287 kts | 250° |
| 2026-04-25 20:01 | -34.09468 | 151.48990 | 8343 ft | 285 kts | 250° |
| 2026-04-25 20:01 | -34.10155 | 151.46753 | 8000 ft | 284 kts | 250° |
| 2026-04-25 20:02 | -34.10833 | 151.44525 | 7656 ft | 282 kts | 250° |
| 2026-04-25 20:02 | -34.11507 | 151.42307 | 7312 ft | 281 kts | 250° |
| 2026-04-25 20:02 | -34.12176 | 151.40106 | 6912 ft | 277 kts | 250° |
| 2026-04-25 20:02 | -34.12831 | 151.37960 | 6276 ft | 275 kts | 250° |
| 2026-04-25 20:03 | -34.13496 | 151.35785 | 5542 ft | 277 kts | 250° |
| 2026-04-25 20:03 | -34.14162 | 151.33596 | 4802 ft | 278 kts | 250° |
| 2026-04-25 20:03 | -34.14820 | 151.31426 | 4346 ft | 269 kts | 250° |
| 2026-04-25 20:03 | -34.15443 | 151.29386 | 4185 ft | 249 kts | 250° |
| 2026-04-25 20:04 | -34.16017 | 151.27499 | 4071 ft | 231 kts | 250° |
| 2026-04-25 20:04 | -34.16451 | 151.25666 | 3964 ft | 227 kts | 269° |
| 2026-04-25 20:04 | -34.16021 | 151.23874 | 3862 ft | 225 kts | 307° |
| 2026-04-25 20:04 | -34.14777 | 151.22805 | 3513 ft | 228 kts | 344° |
| 2026-04-25 20:05 | -34.13226 | 151.22388 | 3174 ft | 229 kts | 348° |
| 2026-04-25 20:05 | -34.11667 | 151.22004 | 2918 ft | 226 kts | 348° |
| 2026-04-25 20:05 | -34.10126 | 151.21625 | 2726 ft | 225 kts | 348° |
| 2026-04-25 20:05 | -34.08602 | 151.21233 | 2451 ft | 223 kts | 347° |
| 2026-04-25 20:06 | -34.07091 | 151.20840 | 2159 ft | 220 kts | 347° |
| 2026-04-25 20:06 | -34.05635 | 151.20461 | 1873 ft | 208 kts | 347° |
| 2026-04-25 20:06 | -34.04274 | 151.20107 | 1633 ft | 193 kts | 347° |
| 2026-04-25 20:06 | -34.03003 | 151.19776 | 1352 ft | 180 kts | 347° |
| 2026-04-25 20:07 | -34.01865 | 151.19480 | 1150 ft | 158 kts | 347° |
| 2026-04-25 20:07 | -34.00845 | 151.19214 | 940 ft | 144 kts | 347° |
| 2026-04-25 20:07 | -33.99881 | 151.18964 | 746 ft | 140 kts | 347° |
| 2026-04-25 20:07 | -33.98938 | 151.18720 | 564 ft | 138 kts | 347° |
| 2026-04-25 20:08 | -33.98000 | 151.18484 | 366 ft | 137 kts | 347° |
| 2026-04-25 20:08 | -33.97072 | 151.18232 | 204 ft | 137 kts | 347° |
| 2026-04-25 20:08 | -33.96141 | 151.17989 | 53 ft | 137 kts | 348° |
| 2026-04-25 20:08 | -33.95297 | 151.17773 | 25 ft | 102 kts | 348° |
| 2026-04-25 20:09 | -33.94790 | 151.17639 | 24 ft | 50 kts | 347° |
| 2026-04-25 20:09 | -33.94636 | 151.17598 | 24 ft | 15 kts | 347° |
| 2026-04-25 20:09 | -33.94527 | 151.17538 | 27 ft | 20 kts | 332° |
| 2026-04-25 20:09 | -33.94402 | 151.17437 | 26 ft | 23 kts | 316° |
| 2026-04-25 20:10 | -33.94283 | 151.17308 | 25 ft | 14 kts | 327° |
| 2026-04-25 20:10 | -33.94253 | 151.17295 | 23 ft | 7 kts | 341° |
| 2026-04-25 20:10 | -33.94188 | 151.17269 | 22 ft | 12 kts | 342° |
| 2026-04-25 20:10 | -33.94099 | 151.17245 | 23 ft | 14 kts | 348° |
| 2026-04-25 20:11 | -33.94009 | 151.17229 | 20 ft | 12 kts | 351° |
| 2026-04-25 20:11 | -33.93991 | 151.17135 | 20 ft | 15 kts | 252° |
| 2026-04-25 20:11 | -33.94021 | 151.17013 | 21 ft | 17 kts | 254° |
| 2026-04-25 20:11 | -33.94049 | 151.16890 | 21 ft | 11 kts | 255° |
| 2026-04-25 20:12 | -33.94055 | 151.16826 | 21 ft | 5 kts | 287° |
| 2026-04-25 20:12 | -33.94021 | 151.16803 | 21 ft | 7 kts | 342° |
| 2026-04-25 20:12 | -33.93965 | 151.16783 | 21 ft | 10 kts | 345° |
| 2026-04-25 20:12 | -33.93945 | 151.16777 | 21 ft | 6 kts | 346° |
| 2026-04-25 20:13 | -33.93920 | 151.16763 | 23 ft | 3 kts | 314° |
| 2026-04-25 20:13 | -33.93920 | 151.16728 | 21 ft | 6 kts | 255° |
| 2026-04-25 20:13 | -33.93926 | 151.16695 | 23 ft | 2 kts | 259° |
| 2026-04-25 20:13 | -33.93927 | 151.16692 | 22 ft | 0 kts | 259° |